Time;durP1;ratioP1;P1;durP2;ratioP2;P2;SDS_P1;SDS_P2;PMS_P1;PMS_P2;Temp;Humidity;BMP_temperature;BMP_pressure;BME280_temperature;BME280_humidity;BME280_pressure;Samples;Min_cycle;Max_cycle;Signal;HPM_P1;HPM_P2
2021/06/06 00:00:18;;;;;;;35.45;17.08;;;;;;;11.54;90.67;102669.06;5076303;28;20059;-69
2021/06/06 00:02:46;;;;;;;32.75;14.85;;;;;;;11.62;90.82;102671.69;5083456;28;20197;-69
2021/06/06 00:05:16;;;;;;;30.95;16.95;;;;;;;11.58;90.50;102674.38;5077969;28;20439;-70
2021/06/06 00:07:44;;;;;;;26.63;13.30;;;;;;;11.59;90.71;102676.16;5079317;28;20743;-71
2021/06/06 00:10:12;;;;;;;27.67;13.40;;;;;;;11.56;91.17;102681.53;5076852;28;20056;-69
2021/06/06 00:12:40;;;;;;;34.90;16.55;;;;;;;11.62;90.73;102677.03;5078492;28;20086;-70
2021/06/06 00:15:10;;;;;;;27.70;13.20;;;;;;;11.67;90.81;102681.44;5076903;28;20059;-71
2021/06/06 00:17:37;;;;;;;28.15;14.40;;;;;;;11.70;90.41;102684.09;5080343;28;20060;-69
2021/06/06 00:20:08;;;;;;;29.33;14.18;;;;;;;11.65;90.32;102677.91;5076014;28;20060;-69
2021/06/06 00:22:37;;;;;;;28.55;13.27;;;;;;;11.59;90.63;102675.25;5082630;28;20062;-69
2021/06/06 00:25:08;;;;;;;27.85;12.85;;;;;;;11.61;90.34;102680.59;5077058;28;20056;-69
2021/06/06 00:27:35;;;;;;;24.85;13.50;;;;;;;11.63;90.44;102677.03;5097244;27;20064;-69
2021/06/06 00:30:05;;;;;;;25.92;11.18;;;;;;;11.61;90.30;102676.13;5073841;28;20148;-69
2021/06/06 00:32:32;;;;;;;19.48;11.23;;;;;;;11.52;90.60;102671.72;5084174;28;20063;-69
2021/06/06 00:34:59;;;;;;;23.40;11.57;;;;;;;11.54;90.26;102677.06;5083847;28;20063;-69
2021/06/06 00:37:27;;;;;;;20.15;10.25;;;;;;;11.52;90.57;102676.19;5082711;28;20140;-69
2021/06/06 00:39:55;;;;;;;26.08;11.85;;;;;;;11.45;90.41;102675.34;5082502;28;20359;-69
2021/06/06 00:42:23;;;;;;;29.80;11.98;;;;;;;11.42;90.47;102674.50;5074118;28;20124;-69
2021/06/06 00:44:51;;;;;;;24.58;11.45;;;;;;;11.40;90.30;102672.69;5084035;28;20056;-69
2021/06/06 00:47:18;;;;;;;22.13;11.30;;;;;;;11.36;90.97;102680.78;5075425;28;20060;-69
2021/06/06 00:49:46;;;;;;;19.40;10.77;;;;;;;11.34;90.99;102677.19;5080012;28;20056;-69
2021/06/06 00:52:17;;;;;;;26.63;12.32;;;;;;;11.31;91.23;102682.59;5074288;28;20064;-73
2021/06/06 00:54:46;;;;;;;24.13;11.85;;;;;;;11.32;90.66;102684.34;5078819;28;20519;-74
2021/06/06 00:57:19;;;;;;;24.23;11.40;;;;;;;11.25;90.95;102677.25;5076537;28;20067;-73
2021/06/06 00:59:50;;;;;;;21.33;11.25;;;;;;;11.28;90.74;102672.78;5076001;28;20334;-73
2021/06/06 01:02:18;;;;;;;22.77;11.05;;;;;;;11.23;90.93;102673.72;5076654;28;20078;-72
2021/06/06 01:04:45;;;;;;;22.70;10.63;;;;;;;11.19;90.76;102672.84;5078717;28;20060;-73
2021/06/06 01:07:12;;;;;;;24.98;11.30;;;;;;;11.18;91.10;102671.94;5071510;28;20470;-73
2021/06/06 01:09:39;;;;;;;28.75;11.70;;;;;;;11.15;91.14;102680.00;5081800;28;20060;-73
2021/06/06 01:12:16;;;;;;;23.83;11.75;;;;;;;11.13;91.00;102664.84;5074362;28;20060;-73
2021/06/06 01:14:51;;;;;;;24.55;11.38;;;;;;;11.11;90.82;102672.00;5082028;28;20100;-73
2021/06/06 01:17:23;;;;;;;25.17;12.02;;;;;;;11.07;91.11;102668.47;5075593;28;20052;-73
2021/06/06 01:19:57;;;;;;;26.13;13.25;;;;;;;11.12;90.96;102677.34;5082084;28;20291;-73
2021/06/06 01:22:38;;;;;;;27.30;12.30;;;;;;;11.08;91.03;102675.56;5077370;28;20064;-75
2021/06/06 01:25:12;;;;;;;27.85;13.40;;;;;;;11.08;90.83;102678.22;5080764;28;20066;-73
2021/06/06 01:27:44;;;;;;;27.58;13.43;;;;;;;11.04;90.94;102676.47;5075162;28;20438;-73
2021/06/06 01:30:17;;;;;;;25.42;13.70;;;;;;;11.03;91.06;102680.03;5078436;28;20052;-74
2021/06/06 01:32:47;;;;;;;;;;;;;;;11.01;90.73;102680.03;5079172;28;20063;-74
2021/06/06 01:35:19;;;;;;;28.48;13.90;;;;;;;10.99;91.16;102672.94;5080272;28;19927;-73
2021/06/06 01:37:51;;;;;;;30.17;15.77;;;;;;;10.96;91.25;102659.59;5076302;28;20064;-72
2021/06/06 01:40:23;;;;;;;26.73;13.65;;;;;;;10.95;91.33;102666.72;5079689;28;20113;-72
2021/06/06 01:42:54;;;;;;;30.63;15.88;;;;;;;10.92;91.46;102661.41;5075306;28;20485;-74
2021/06/06 01:45:24;;;;;;;29.63;14.18;;;;;;;10.92;91.35;102666.75;5081858;28;20063;-74
2021/06/06 01:47:57;;;;;;;26.73;13.98;;;;;;;10.91;91.45;102656.06;5075513;28;20065;-73
2021/06/06 01:50:27;;;;;;;25.35;12.63;;;;;;;10.89;91.19;102661.41;5080597;28;20064;-73
2021/06/06 01:52:56;;;;;;;27.85;14.05;;;;;;;10.88;91.19;102656.97;5076783;28;20067;-69
2021/06/06 01:55:29;;;;;;;31.33;13.25;;;;;;;10.87;91.49;102659.66;5074355;28;20351;-69
2021/06/06 01:58:01;;;;;;;26.80;13.27;;;;;;;10.84;91.09;102656.09;5082341;28;20056;-70
2021/06/06 02:00:32;;;;;;;27.65;12.43;;;;;;;10.83;91.23;102657.00;5076531;28;20071;-68
2021/06/06 02:02:59;;;;;;;27.95;14.73;;;;;;;10.83;91.21;102661.44;5077663;28;20075;-69
2021/06/06 02:05:27;;;;;;;28.75;13.45;;;;;;;10.81;91.45;102655.19;5076063;28;20509;-69
2021/06/06 02:07:56;;;;;;;31.42;15.05;;;;;;;10.75;91.62;102661.47;5079499;28;20056;-74
2021/06/06 02:10:30;;;;;;;27.45;12.68;;;;;;;10.76;91.62;102657.00;5074010;28;20351;-73
2021/06/06 02:13:03;;;;;;;27.80;13.07;;;;;;;10.76;91.56;102654.34;5083537;28;20122;-73
2021/06/06 02:15:33;;;;;;;26.98;13.68;;;;;;;10.69;91.16;102653.47;5074349;28;20079;-73
2021/06/06 02:18:02;;;;;;;26.42;12.38;;;;;;;10.70;91.33;102657.03;5079751;28;20091;-73
2021/06/06 02:20:35;;;;;;;25.00;12.13;;;;;;;10.68;91.33;102654.38;5073665;28;20072;-73
2021/06/06 02:23:03;;;;;;;30.15;13.23;;;;;;;10.68;91.54;102651.72;5078827;28;20048;-73
2021/06/06 02:25:32;;;;;;;21.63;11.05;;;;;;;10.62;91.75;102654.38;5077023;28;20060;-74
2021/06/06 02:28:10;;;;;;;23.63;11.38;;;;;;;10.58;91.75;102650.84;5081743;28;20097;-74
2021/06/06 02:30:45;;;;;;;21.15;11.65;;;;;;;10.59;92.32;102649.06;5079429;28;20086;-74
2021/06/06 02:33:21;;;;;;;26.27;11.68;;;;;;;10.56;91.97;102657.09;5083354;28;20113;-74
2021/06/06 02:35:54;;;;;;;22.17;11.35;;;;;;;10.55;91.90;102655.31;5078603;28;20060;-74
2021/06/06 02:38:27;;;;;;;30.65;12.85;;;;;;;10.54;91.95;102651.75;5086313;28;20067;-74
2021/06/06 02:41:02;;;;;;;25.35;11.98;;;;;;;10.50;91.70;102655.31;5078502;28;20443;-72
2021/06/06 02:43:35;;;;;;;24.85;11.32;;;;;;;10.48;91.77;102656.22;5084244;28;20068;-74
2021/06/06 02:46:05;;;;;;;23.55;11.15;;;;;;;10.46;92.16;102654.44;5078648;28;20151;-73
2021/06/06 02:48:39;;;;;;;24.27;11.52;;;;;;;10.46;92.01;102657.09;5083765;28;20105;-74
2021/06/06 02:51:09;;;;;;;22.95;11.52;;;;;;;10.43;92.53;102649.09;5080663;28;20194;-73
2021/06/06 02:53:40;;;;;;;25.45;11.75;;;;;;;10.42;92.18;102643.75;5080514;28;20119;-73
2021/06/06 02:56:13;;;;;;;26.33;12.02;;;;;;;10.40;92.18;102654.47;5077355;28;20055;-73
2021/06/06 02:58:46;;;;;;;27.63;12.48;;;;;;;10.39;92.56;102649.13;5081611;28;20175;-74
2021/06/06 03:01:18;;;;;;;26.35;11.77;;;;;;;10.35;92.57;102656.25;5077942;28;20486;-72
2021/06/06 03:03:46;;;;;;;28.55;13.02;;;;;;;10.33;92.89;102655.34;5079501;28;20063;-75
2021/06/06 03:06:19;;;;;;;24.27;11.52;;;;;;;10.29;92.95;102651.78;5081675;28;20072;-73
2021/06/06 03:08:46;;;;;;;25.30;12.60;;;;;;;10.34;93.25;102656.25;5080966;28;20352;-73
2021/06/06 03:11:16;;;;;;;27.35;11.98;;;;;;;10.35;93.44;102658.94;5081066;28;20075;-73
2021/06/06 03:13:48;;;;;;;25.90;12.43;;;;;;;10.35;93.19;102656.25;5080478;28;20355;-75
2021/06/06 03:16:17;;;;;;;23.48;11.43;;;;;;;10.35;92.79;102656.25;5082593;28;20074;-73
2021/06/06 03:18:49;;;;;;;22.80;11.27;;;;;;;10.34;93.02;102657.16;5080185;28;20395;-74
2021/06/06 03:21:19;;;;;;;27.02;12.55;;;;;;;10.34;92.69;102654.47;5080783;28;20314;-73
2021/06/06 03:23:52;;;;;;;24.30;10.77;;;;;;;10.35;92.80;102658.94;5076388;28;20133;-74
2021/06/06 03:26:20;;;;;;;25.35;11.82;;;;;;;10.36;92.94;102663.34;5080004;28;20093;-73
2021/06/06 03:28:48;;;;;;;30.38;12.80;;;;;;;10.32;92.98;102664.28;5079595;28;20064;-74
2021/06/06 03:31:19;;;;;;;23.25;11.23;;;;;;;10.37;92.98;102664.25;5082177;28;20203;-73
2021/06/06 03:33:52;;;;;;;25.35;12.20;;;;;;;10.40;93.29;102666.91;5078637;28;20068;-68
2021/06/06 03:36:23;;;;;;;24.33;11.75;;;;;;;10.36;92.97;102666.03;5081740;28;20063;-69
2021/06/06 03:38:51;;;;;;;23.67;11.80;;;;;;;10.35;92.99;102666.03;5077646;28;20103;-70
2021/06/06 03:41:20;;;;;;;23.73;11.68;;;;;;;10.36;92.89;102670.50;5081291;28;20052;-73
2021/06/06 03:43:47;;;;;;;23.35;11.65;;;;;;;10.36;92.66;102671.38;5075047;28;20149;-73
2021/06/06 03:46:14;;;;;;;23.88;11.85;;;;;;;10.35;92.59;102671.38;5084909;28;20561;-73
2021/06/06 03:48:42;;;;;;;27.95;13.15;;;;;;;10.32;92.92;102669.59;5077825;28;20063;-75
2021/06/06 03:51:10;;;;;;;26.15;11.25;;;;;;;10.32;92.71;102661.59;5084334;28;20052;-75
2021/06/06 03:53:37;;;;;;;26.05;12.63;;;;;;;10.33;92.88;102663.34;5081273;28;20052;-73
2021/06/06 03:56:06;;;;;;;23.00;12.60;;;;;;;10.33;92.76;102671.38;5080616;28;20063;-73
2021/06/06 03:58:35;;;;;;;28.48;11.13;;;;;;;10.33;93.00;102659.81;5096233;28;20442;-73
2021/06/06 04:01:03;;;;;;;25.00;12.20;;;;;;;10.34;92.82;102654.47;5082038;28;20087;-76
2021/06/06 04:03:31;;;;;;;30.63;13.15;;;;;;;10.34;92.82;102653.59;5076031;28;20061;-74
2021/06/06 04:05:59;;;;;;;25.70;12.95;;;;;;;10.38;93.31;102650.91;5081244;28;20182;-74
2021/06/06 04:08:27;;;;;;;23.50;11.88;;;;;;;10.40;93.03;102657.16;5077763;28;20083;-75
2021/06/06 04:10:55;;;;;;;32.65;14.60;;;;;;;10.43;93.23;102654.44;5085563;28;20139;-75
2021/06/06 04:13:23;;;;;;;30.27;15.10;;;;;;;10.45;92.76;102651.78;5080943;28;20107;-76
2021/06/06 04:15:52;;;;;;;28.23;13.00;;;;;;;10.46;92.93;102656.22;5077810;28;20147;-74
2021/06/06 04:18:22;;;;;;;23.58;12.45;;;;;;;10.49;92.83;102656.22;5080268;28;20056;-75
2021/06/06 04:20:52;;;;;;;22.48;10.75;;;;;;;10.52;92.79;102652.66;5079387;28;20099;-73
2021/06/06 04:23:20;;;;;;;19.77;10.82;;;;;;;10.59;92.66;102657.97;5082916;28;20139;-73
2021/06/06 04:25:48;;;;;;;24.48;10.65;;;;;;;10.63;92.45;102658.84;5075456;28;20056;-73
2021/06/06 04:28:15;;;;;;;26.83;11.57;;;;;;;10.70;92.30;102660.59;5084048;28;20063;-75
2021/06/06 04:30:43;;;;;;;26.98;11.27;;;;;;;10.78;91.78;102661.47;5079377;28;20063;-70
2021/06/06 04:33:12;;;;;;;30.35;12.38;;;;;;;10.87;91.68;102662.31;5081266;28;21063;-70
2021/06/06 04:35:42;;;;;;;25.42;11.55;;;;;;;10.95;91.13;102669.41;5079716;28;20133;-70
2021/06/06 04:38:12;;;;;;;24.65;10.77;;;;;;;11.05;90.85;102666.66;5079024;28;20090;-70
2021/06/06 04:40:40;;;;;;;21.52;9.68;;;;;;;11.25;89.60;102671.91;5077224;28;20056;-70
2021/06/06 04:43:09;;;;;;;21.20;11.07;;;;;;;11.24;89.11;102667.47;5078461;28;20075;-71
2021/06/06 04:45:36;;;;;;;21.85;10.52;;;;;;;11.37;88.46;102670.06;5076690;28;20095;-70
2021/06/06 04:48:12;;;;;;;21.88;11.23;;;;;;;11.58;88.08;102663.69;5075485;28;20500;-71
2021/06/06 04:50:40;;;;;;;12.68;6.97;;;;;;;11.58;86.79;102669.03;5076961;28;20056;-70
2021/06/06 04:53:08;;;;;;;20.13;9.68;;;;;;;11.78;85.92;102667.97;5081554;28;20061;-70
2021/06/06 04:55:36;;;;;;;12.02;7.30;;;;;;;11.85;85.59;102666.13;5074067;28;20067;-70
2021/06/06 04:58:04;;;;;;;13.55;7.30;;;;;;;12.07;84.48;102675.81;5081601;28;20056;-70
2021/06/06 05:00:34;;;;;;;14.40;7.63;;;;;;;12.06;83.97;102668.66;5075362;28;21446;-70
2021/06/06 05:03:02;;;;;;;12.00;6.45;;;;;;;12.27;82.46;102666.69;5080109;28;20067;-69
2021/06/06 05:05:31;;;;;;;15.15;6.85;;;;;;;12.35;82.12;102675.53;5077388;28;20103;-70
2021/06/06 05:08:00;;;;;;;13.68;6.78;;;;;;;12.47;80.77;102666.47;5074499;28;20141;-74
2021/06/06 05:10:30;;;;;;;15.10;7.40;;;;;;;12.55;80.48;102671.75;5080078;28;20331;-74
2021/06/06 05:12:58;;;;;;;12.70;6.82;;;;;;;12.96;78.91;102657.84;5074533;28;20075;-74
2021/06/06 05:15:25;;;;;;;20.48;8.65;;;;;;;13.14;78.19;102656.69;5083128;28;20059;-73
2021/06/06 05:17:53;;;;;;;17.98;7.45;;;;;;;13.19;77.95;102664.69;5074620;28;20123;-73
2021/06/06 05:20:24;;;;;;;14.68;7.53;;;;;;;13.21;77.29;102665.56;5078913;28;20134;-74
2021/06/06 05:22:53;;;;;;;12.95;6.30;;;;;;;13.55;76.24;102652.59;5074944;28;20068;-73
2021/06/06 05:25:21;;;;;;;13.40;7.20;;;;;;;13.77;75.18;102653.13;5077537;28;20233;-74
2021/06/06 05:27:49;;;;;;;17.05;8.00;;;;;;;13.76;74.64;102648.66;5077996;28;20060;-75
2021/06/06 05:30:22;;;;;;;16.67;7.68;;;;;;;13.76;74.19;102645.09;5074299;28;20454;-74
2021/06/06 05:32:49;;;;;;;16.05;7.63;;;;;;;14.06;74.12;102642.78;5075802;28;20059;-74
2021/06/06 05:35:17;;;;;;;12.82;7.07;;;;;;;13.99;73.03;102648.25;5080873;28;20064;-75
2021/06/06 05:37:44;;;;;;;13.48;7.10;;;;;;;14.42;72.33;102651.97;5079328;28;20140;-74
2021/06/06 05:40:14;;;;;;;11.52;6.38;;;;;;;14.54;71.34;102645.44;5081224;28;20056;-74
2021/06/06 05:42:43;;;;;;;15.60;7.32;;;;;;;14.49;71.65;102648.22;5070979;28;20455;-73
2021/06/06 05:45:12;;;;;;;12.88;6.47;;;;;;;15.03;69.96;102639.06;5080980;28;20063;-71
2021/06/06 05:47:40;;;;;;;14.13;6.50;;;;;;;15.21;70.95;102644.97;5075976;28;20763;-71
2021/06/06 05:50:10;;;;;;;11.68;6.28;;;;;;;15.11;68.98;102650.53;5076497;28;20332;-70
2021/06/06 05:52:38;;;;;;;14.35;6.78;;;;;;;15.07;68.37;102653.34;5075897;28;20056;-70
2021/06/06 05:55:07;;;;;;;13.00;7.03;;;;;;;14.81;68.69;102653.88;5076420;28;20051;-70
2021/06/06 05:57:36;;;;;;;12.82;6.07;;;;;;;15.16;67.90;102660.31;5077499;28;20075;-69
2021/06/06 06:00:05;;;;;;;11.25;5.97;;;;;;;15.40;67.51;102657.03;5072056;28;20063;-70
2021/06/06 06:02:33;;;;;;;12.38;6.53;;;;;;;15.39;67.29;102665.16;5080454;28;20442;-69
2021/06/06 06:05:00;;;;;;;12.50;6.43;;;;;;;15.47;67.00;102661.34;5076183;28;20068;-69
2021/06/06 06:07:28;;;;;;;11.48;6.90;;;;;;;15.69;66.30;102659.03;5079619;28;20072;-69
2021/06/06 06:09:55;;;;;;;10.88;6.60;;;;;;;15.66;66.49;102661.81;5081242;28;20054;-70
2021/06/06 06:12:23;;;;;;;12.85;5.70;;;;;;;16.23;65.33;102651.41;5082435;28;20066;-69
2021/06/06 06:14:52;;;;;;;8.82;5.53;;;;;;;16.10;64.76;102656.22;5080740;28;20088;-70
2021/06/06 06:17:19;;;;;;;10.65;5.95;;;;;;;15.89;64.82;102657.69;5082620;28;20064;-70
2021/06/06 06:19:47;;;;;;;10.48;5.40;;;;;;;15.82;63.89;102656.97;5080040;28;20067;-70
2021/06/06 06:22:14;;;;;;;10.18;5.93;;;;;;;16.05;63.91;102659.03;5082801;28;20059;-69
2021/06/06 06:24:42;;;;;;;10.80;4.82;;;;;;;16.77;63.56;102645.38;5076822;28;20056;-70
2021/06/06 06:27:09;;;;;;;14.05;6.53;;;;;;;16.31;61.95;102659.28;5071826;28;20125;-73
2021/06/06 06:29:36;;;;;;;13.05;5.63;;;;;;;16.85;61.71;102647.00;5081635;28;20067;-73
2021/06/06 06:32:05;;;;;;;9.45;4.88;;;;;;;16.87;61.03;102658.63;5078665;28;20400;-73
2021/06/06 06:34:33;;;;;;;12.80;6.35;;;;;;;17.00;60.31;102649.25;5079480;28;20070;-72
2021/06/06 06:37:00;;;;;;;9.52;5.22;;;;;;;16.69;60.77;102657.34;5074625;28;20087;-74
2021/06/06 06:39:28;;;;;;;11.88;5.78;;;;;;;17.26;59.84;102650.25;5081924;28;20063;-74
2021/06/06 06:41:55;;;;;;;10.23;5.65;;;;;;;17.31;59.82;102654.53;5079585;28;20060;-73
2021/06/06 06:44:22;;;;;;;10.43;4.82;;;;;;;18.22;57.78;102643.44;5083468;28;20052;-72
2021/06/06 06:46:49;;;;;;;13.40;4.93;;;;;;;18.35;56.98;102648.41;5079927;28;20075;-72
2021/06/06 06:49:18;;;;;;;9.88;4.70;;;;;;;18.62;56.43;102649.22;5084088;28;20056;-73
2021/06/06 06:51:46;;;;;;;8.65;5.50;;;;;;;17.96;55.87;102656.97;5080185;28;20645;-73
2021/06/06 06:54:13;;;;;;;9.45;5.50;;;;;;;17.70;57.39;102656.00;5080221;28;20064;-74
2021/06/06 06:56:40;;;;;;;9.57;5.00;;;;;;;18.06;56.10;102648.50;5084762;28;20055;-74
2021/06/06 06:59:08;;;;;;;7.95;4.57;;;;;;;18.24;56.16;102652.38;5079610;28;20159;-73
2021/06/06 07:01:35;;;;;;;9.98;5.95;;;;;;;18.44;56.48;102650.78;5082822;28;20052;-73
2021/06/06 07:04:03;;;;;;;11.23;5.65;;;;;;;18.25;54.80;102653.25;5079620;28;20068;-73
2021/06/06 07:06:32;;;;;;;12.00;5.88;;;;;;;18.58;55.61;102645.75;5083223;28;20060;-73
2021/06/06 07:09:00;;;;;;;12.70;5.47;;;;;;;18.54;54.09;102652.22;5077061;28;20084;-73
2021/06/06 07:11:27;;;;;;;10.93;5.00;;;;;;;18.48;54.77;102663.25;5082771;28;20067;-73
2021/06/06 07:13:55;;;;;;;9.73;5.40;;;;;;;18.22;54.91;102661.50;5085262;28;20094;-73
2021/06/06 07:16:22;;;;;;;9.55;5.30;;;;;;;18.73;54.74;102662.31;5085694;28;20056;-74
2021/06/06 07:18:50;;;;;;;8.77;5.60;;;;;;;18.11;54.44;102667.25;5080010;28;20463;-73
2021/06/06 07:21:22;;;;;;;11.23;5.43;;;;;;;18.47;53.37;102666.88;5082108;28;20346;-73
2021/06/06 07:23:52;;;;;;;11.77;5.68;;;;;;;18.24;53.46;102673.13;5078217;28;20067;-74
2021/06/06 07:26:23;;;;;;;9.95;5.50;;;;;;;18.56;53.59;102671.97;5082493;28;20560;-73
2021/06/06 07:28:50;;;;;;;11.15;5.57;;;;;;;18.31;53.49;102674.66;5076868;28;20406;-69
2021/06/06 07:31:18;;;;;;;12.25;5.75;;;;;;;18.09;54.31;102678.09;5081704;28;20473;-70
2021/06/06 07:33:46;;;;;;;11.65;5.65;;;;;;;18.07;54.20;102674.56;5079432;28;20071;-73
2021/06/06 07:36:17;;;;;;;10.90;4.97;;;;;;;18.27;53.72;102673.00;5079646;28;20361;-74
2021/06/06 07:38:47;;;;;;;8.95;5.40;;;;;;;19.29;51.91;102667.41;5076171;28;20143;-73
2021/06/06 07:41:17;;;;;;;9.43;5.15;;;;;;;18.89;52.93;102665.38;5083156;28;20491;-74
2021/06/06 07:43:44;;;;;;;9.55;5.82;;;;;;;18.99;53.01;102672.19;5081755;28;20060;-70
2021/06/06 07:46:14;;;;;;;10.90;5.60;;;;;;;18.87;53.00;102669.97;5077054;28;20060;-69
2021/06/06 07:48:42;;;;;;;10.35;5.30;;;;;;;18.50;53.92;102676.69;5080457;28;20094;-71
2021/06/06 07:51:09;;;;;;;9.88;5.22;;;;;;;19.15;52.60;102672.47;5081658;28;20138;-69
2021/06/06 07:53:37;;;;;;;8.85;5.07;;;;;;;19.03;52.36;102665.72;5080371;28;20052;-70
2021/06/06 07:56:05;;;;;;;10.70;5.03;;;;;;;20.19;49.61;102669.09;5079415;28;20056;-71
2021/06/06 07:58:37;;;;;;;9.60;4.97;;;;;;;20.28;49.09;102677.72;5082528;28;20091;-70
2021/06/06 08:01:06;;;;;;;10.30;5.43;;;;;;;19.38;49.61;102668.84;5078074;28;20135;-70
2021/06/06 08:03:35;;;;;;;9.23;5.60;;;;;;;19.20;51.24;102665.03;5079554;28;20091;-71
2021/06/06 08:06:05;;;;;;;10.60;6.00;;;;;;;20.06;49.01;102671.50;5076937;28;20067;-73
2021/06/06 08:08:32;;;;;;;11.38;5.63;;;;;;;20.09;48.50;102671.34;5079513;28;20359;-74
2021/06/06 08:11:01;;;;;;;8.88;5.57;;;;;;;19.28;49.27;102681.00;5078587;28;20064;-73
2021/06/06 08:13:29;;;;;;;10.73;5.45;;;;;;;19.12;50.10;102676.19;5077618;28;20062;-69
2021/06/06 08:15:58;;;;;;;9.13;5.22;;;;;;;19.67;49.29;102675.78;5069885;28;20063;-74
2021/06/06 08:18:29;;;;;;;8.15;4.40;;;;;;;19.31;47.77;102668.22;5078957;28;20092;-74
2021/06/06 08:21:01;;;;;;;8.70;4.28;;;;;;;19.84;46.83;102675.09;5073321;28;20060;-73
2021/06/06 08:23:29;;;;;;;13.20;4.60;;;;;;;19.83;47.24;102672.47;5080260;28;20374;-73
2021/06/06 08:25:58;;;;;;;9.73;4.43;;;;;;;19.54;46.21;102675.38;5076095;28;20068;-71
2021/06/06 08:28:26;;;;;;;9.35;4.18;;;;;;;19.15;46.89;102683.28;5080255;28;20053;-71
2021/06/06 08:30:56;;;;;;;8.38;5.00;;;;;;;20.00;46.40;102672.63;5077560;28;20107;-70
2021/06/06 08:33:28;;;;;;;10.13;4.45;;;;;;;19.21;47.20;102672.22;5078506;28;20459;-71
2021/06/06 08:35:59;;;;;;;7.53;3.80;;;;;;;19.77;46.95;102670.91;5080519;28;20071;-70
2021/06/06 08:38:29;;;;;;;7.65;3.90;;;;;;;20.22;44.95;102669.84;5077587;28;20056;-71
2021/06/06 08:41:01;;;;;;;8.80;4.55;;;;;;;20.45;43.82;102670.66;5082552;28;20117;-70
2021/06/06 08:43:39;;;;;;;11.43;4.50;;;;;;;20.43;43.68;102680.69;5078893;28;20900;-74
2021/06/06 08:46:06;;;;;;;9.70;3.90;;;;;;;20.68;42.49;102665.09;5079933;28;20059;-73
2021/06/06 08:48:35;;;;;;;7.07;3.83;;;;;;;20.29;43.74;102682.19;5081328;28;20063;-73
2021/06/06 08:51:21;;;;;;;6.20;3.55;;;;;;;19.69;42.16;102673.00;5079088;28;20355;-71
2021/06/06 08:53:57;;;;;;;8.48;3.70;;;;;;;20.03;42.72;102675.19;5083100;28;20067;-69
2021/06/06 08:56:29;;;;;;;6.18;3.60;;;;;;;21.03;41.88;102670.72;5080651;28;20150;-70
2021/06/06 08:59:01;;;;;;;7.53;3.40;;;;;;;21.23;40.90;102661.63;5080772;28;20067;-70
2021/06/06 09:01:40;;;;;;;8.32;3.80;;;;;;;20.83;41.24;102668.06;5081478;28;21124;-69
2021/06/06 09:04:14;;;;;;;8.82;3.63;;;;;;;19.89;39.71;102677.63;5079134;28;20056;-70
2021/06/06 09:06:49;;;;;;;7.95;3.47;;;;;;;21.41;37.98;102667.13;5097463;27;20063;-70
2021/06/06 09:09:22;;;;;;;6.90;2.95;;;;;;;21.49;38.03;102666.75;5076594;28;20055;-71
2021/06/06 09:11:50;;;;;;;6.43;3.10;;;;;;;22.02;36.23;102666.75;5079886;28;20067;-73
2021/06/06 09:14:18;;;;;;;4.15;2.30;;;;;;;20.69;36.72;102671.44;5075279;28;20059;-74
2021/06/06 09:17:01;;;;;;;4.97;2.80;;;;;;;20.86;36.52;102679.66;5082027;28;20071;-73
2021/06/06 09:19:46;;;;;;;5.35;2.75;;;;;;;20.34;37.21;102693.69;5074765;28;20060;-73
2021/06/06 09:22:14;;;;;;;3.67;2.40;;;;;;;20.60;36.25;102690.78;5079676;28;20052;-73
2021/06/06 09:24:46;;;;;;;4.93;2.50;;;;;;;20.49;37.03;102691.28;5074800;28;20071;-75
2021/06/06 09:27:25;;;;;;;4.28;2.40;;;;;;;21.03;36.59;102684.28;5077931;28;20113;-74
2021/06/06 09:30:00;;;;;;;4.68;2.53;;;;;;;21.12;35.57;102687.53;5074171;28;20114;-72
2021/06/06 09:32:28;;;;;;;4.75;2.53;;;;;;;21.61;35.02;102686.06;5078614;28;20063;-73
2021/06/06 09:34:59;;;;;;;5.40;2.80;;;;;;;20.98;36.34;102699.91;5077161;28;20056;-74
2021/06/06 09:37:29;;;;;;;3.22;2.40;;;;;;;20.40;36.49;102692.56;5080425;28;20078;-73
2021/06/06 09:40:07;;;;;;;4.65;2.70;;;;;;;20.27;36.77;102694.06;5077170;28;20062;-73
2021/06/06 09:42:39;;;;;;;5.45;2.38;;;;;;;21.68;36.03;102692.06;5080398;28;20395;-73
2021/06/06 09:45:18;;;;;;;5.35;2.40;;;;;;;22.08;35.27;102681.84;5075325;28;20118;-73
2021/06/06 09:47:56;;;;;;;4.07;2.70;;;;;;;21.58;34.65;102682.59;5078788;28;20055;-73
2021/06/06 09:50:31;;;;;;;6.75;2.70;;;;;;;22.28;32.69;102686.28;5071318;28;20481;-71
2021/06/06 09:53:10;;;;;;;4.65;2.28;;;;;;;22.45;32.61;102684.53;5082176;28;20355;-70
2021/06/06 09:55:37;;;;;;;7.00;3.35;;;;;;;21.07;33.96;102701.31;5072639;28;20126;-70
2021/06/06 09:58:11;;;;;;;6.82;2.70;;;;;;;21.70;34.03;102697.41;5093591;28;20075;-70
2021/06/06 10:00:41;;;;;;;7.07;2.85;;;;;;;22.07;33.21;102695.56;5072693;28;20074;-70
2021/06/06 10:03:21;;;;;;;5.25;2.53;;;;;;;21.57;32.60;102692.59;5078858;28;20482;-69
2021/06/06 10:06:13;;;;;;;3.65;2.20;;;;;;;22.45;33.70;102684.53;5074435;28;20095;-73
2021/06/06 10:08:42;;;;;;;7.43;2.55;;;;;;;22.70;32.50;102694.97;5076948;28;20070;-75
2021/06/06 10:11:14;;;;;;;5.88;2.67;;;;;;;21.70;33.38;102697.41;5074867;28;20063;-74
2021/06/06 10:13:44;;;;;;;4.95;2.60;;;;;;;22.36;34.37;102688.63;5077029;28;20063;-74
2021/06/06 10:16:16;;;;;;;5.82;2.70;;;;;;;22.37;33.03;102693.09;5075528;28;20059;-74
2021/06/06 10:18:50;;;;;;;3.78;2.78;;;;;;;21.79;34.56;102694.22;5079040;28;20064;-71
2021/06/06 10:21:22;;;;;;;6.07;2.72;;;;;;;22.42;33.25;102685.56;5076960;28;20064;-70
2021/06/06 10:23:53;;;;;;;6.88;2.70;;;;;;;21.86;35.06;102692.94;5078615;28;20261;-70
2021/06/06 10:26:30;;;;;;;5.22;2.88;;;;;;;23.04;33.79;102683.09;5074826;28;20065;-70
2021/06/06 10:29:03;;;;;;;4.30;2.65;;;;;;;22.86;33.14;102690.44;5082262;28;20064;-70
2021/06/06 10:31:35;;;;;;;6.72;2.72;;;;;;;22.99;33.63;102687.06;5075164;28;20700;-71
2021/06/06 10:34:09;;;;;;;8.27;2.92;;;;;;;22.60;33.98;102694.59;5081041;28;21057;-70
2021/06/06 10:36:40;;;;;;;5.75;3.10;;;;;;;23.35;33.31;102694.16;5072838;28;20386;-70
2021/06/06 10:39:14;;;;;;;4.80;2.97;;;;;;;22.96;34.08;102695.38;5078624;28;20076;-70
2021/06/06 10:41:51;;;;;;;4.35;2.70;;;;;;;23.66;33.26;102685.06;5071840;28;20433;-69
2021/06/06 10:44:23;;;;;;;6.93;2.90;;;;;;;22.11;34.61;102689.88;5077099;28;20470;-71
2021/06/06 10:46:53;;;;;;;6.47;2.63;;;;;;;21.96;35.08;102679.78;5078334;28;20090;-69
2021/06/06 10:49:24;;;;;;;4.97;2.72;;;;;;;22.67;34.52;102676.97;5081991;28;20462;-69
2021/06/06 10:51:57;;;;;;;;;;;;;;;22.97;33.55;102678.97;5080856;28;20060;-69
2021/06/06 10:54:36;;;;;;;4.85;2.63;;;;;;;21.75;34.57;102684.47;5082573;28;19935;-69
2021/06/06 10:57:08;;;;;;;6.03;2.80;;;;;;;22.09;34.49;102690.91;5078996;28;20421;-69
2021/06/06 10:59:48;;;;;;;4.25;2.30;;;;;;;22.81;34.35;102678.94;5084055;28;20067;-70
2021/06/06 11:02:30;;;;;;;6.47;2.42;;;;;;;21.87;33.80;102677.56;5078681;28;20067;-73
2021/06/06 11:05:00;;;;;;;5.30;2.40;;;;;;;23.16;32.92;102676.13;5082483;28;20453;-72
2021/06/06 11:07:40;;;;;;;4.53;2.10;;;;;;;22.67;33.31;102671.53;5078544;28;20056;-73
2021/06/06 11:10:30;;;;;;;5.57;2.60;;;;;;;23.65;32.58;102664.22;5084182;28;20138;-73
2021/06/06 11:13:10;;;;;;;5.15;2.67;;;;;;;23.97;32.50;102673.28;5077459;28;20052;-72
2021/06/06 11:15:40;;;;;;;5.72;2.72;;;;;;;23.78;31.02;102669.84;5084423;28;20056;-71
2021/06/06 11:18:11;;;;;;;7.20;3.03;;;;;;;22.94;32.04;102663.69;5078693;28;20635;-72
2021/06/06 11:20:51;;;;;;;6.53;2.67;;;;;;;24.01;30.32;102660.34;5081239;28;20488;-72
2021/06/06 11:23:32;;;;;;;6.40;2.70;;;;;;;23.55;32.44;102665.72;5075014;28;20052;-73
2021/06/06 11:26:00;;;;;;;4.57;2.25;;;;;;;23.99;31.66;102664.97;5080226;28;20056;-73
2021/06/06 11:28:38;;;;;;;4.20;2.00;;;;;;;24.83;30.28;102664.34;5078271;28;20070;-73
2021/06/06 11:31:26;;;;;;;5.00;2.55;;;;;;;25.11;29.44;102652.50;5080594;28;20051;-73